Alief, TX (77411)

3:14 PM CDT on March 27, 2015 (GMT -0500)
ShadowLake | | Change Station
CLOSE
Current Station
Personal Weather Station
Location: West Houston / Alief, TX
Elevation: 72 ft
Nearby Weather Stations

Elev 72 ft 29.72 °N, 95.60 °W | Updated 12 seconds ago

Clear
Clear
80.8 °F
Feels Like 79 °F
N
8.7
Wind Variable Wind from West
Gusts 10.5 mph

Today
High -- | Low -- °F
--% Chance of Precip.
Yesterday
High -- | Low -- °F
Precip. -- in
7:18 AM 7:37 PM
First Quarter, 55% visible
Pressure 30.13 in
Visibility 10.0 miles
Clouds Clear
Heat Index 79 °F
Dew Point 17 °F
Humidity 9%
Rainfall 0.00 in
Snow Depth Not available.
UV 9 out of 12
Pollen 10.10 out of 12
Air Quality Not available.
Flu Activity Not available.
METAR KSGR 271953Z 29008G15KT 10SM CLR 24/05 A3012 RMK AO2 SLP201 T02440050

More Conditions Fewer Conditions

Pressure 30.13 in
Visibility 10.0 miles
Clouds Clear
Heat Index 79 °F
Dew Point 17 °F
Humidity 9%
Rainfall 0.00 in
Snow Depth Not available.
UV 9 out of 12
Pollen 10.10 out of 12
Air Quality Not available.
Flu Activity Not available.
METAR KSGR 271953Z 29008G15KT 10SM CLR 24/05 A3012 RMK AO2 SLP201 T02440050

More Conditions Fewer Conditions

10-Day Weather Forecast

Almanac

Astronomy

Mar. 27, 2015 Rise Set
Actual Time
Civil Twilight
Nautical Twilight
Astronomical Twilight
Moon
Length of Visible Light
Length of Day
Tomorrow will be .
, % of the Moon is Illuminated

Today's Extremes

State Highs State Lows

Community

WunderPhotos

Upload Photos

1,808,810 photos uploaded!

WunderBlogs® & News

Nearby

Air Quality

  Air Quality AQ Index Pollutant
Not available.

Snow Depth

Station Depth Elevation

Earthquake Activity

City Distance Mag. Time & Date
Minimum magnitude displayed is 2.5.

Coastal Water Temperatures

Place Temperature

Stations

Nearby Weather Stations

Station Location Temp. Windchill Dew Point Humidity Wind Precip. Elev Updated Type